sensor_id;sensor_type;location;lat;lon;timestamp;temperature;humidity
7494;DHT22;3788;49.902;8.590;2024-01-06T00:00:44;5.90;99.90
7494;DHT22;3788;49.902;8.590;2024-01-06T00:03:11;5.90;99.90
7494;DHT22;3788;49.902;8.590;2024-01-06T00:05:39;5.90;99.90
7494;DHT22;3788;49.902;8.590;2024-01-06T00:08:06;5.80;99.90
7494;DHT22;3788;49.902;8.590;2024-01-06T00:10:32;5.80;99.90
7494;DHT22;3788;49.902;8.590;2024-01-06T00:12:59;5.70;99.90
7494;DHT22;3788;49.902;8.590;2024-01-06T00:15:27;5.70;99.90
7494;DHT22;3788;49.902;8.590;2024-01-06T00:17:53;5.60;99.90
7494;DHT22;3788;49.902;8.590;2024-01-06T00:20:20;5.60;99.90
7494;DHT22;3788;49.902;8.590;2024-01-06T00:22:46;5.60;99.90
7494;DHT22;3788;49.902;8.590;2024-01-06T00:25:13;5.50;99.90
7494;DHT22;3788;49.902;8.590;2024-01-06T00:27:40;5.50;99.90
7494;DHT22;3788;49.902;8.590;2024-01-06T00:30:07;5.50;99.90
7494;DHT22;3788;49.902;8.590;2024-01-06T00:32:35;5.50;99.90
7494;DHT22;3788;49.902;8.590;2024-01-06T00:35:02;5.50;99.90
7494;DHT22;3788;49.902;8.590;2024-01-06T00:37:29;5.50;99.90
7494;DHT22;3788;49.902;8.590;2024-01-06T00:39:55;5.50;99.90
7494;DHT22;3788;49.902;8.590;2024-01-06T00:42:22;5.60;99.90
7494;DHT22;3788;49.902;8.590;2024-01-06T00:44:48;5.60;99.90
7494;DHT22;3788;49.902;8.590;2024-01-06T00:47:15;5.70;99.90
7494;DHT22;3788;49.902;8.590;2024-01-06T00:49:43;5.70;99.90
7494;DHT22;3788;49.902;8.590;2024-01-06T00:52:10;5.80;99.90
7494;DHT22;3788;49.902;8.590;2024-01-06T00:54:37;5.80;99.90
7494;DHT22;3788;49.902;8.590;2024-01-06T00:57:04;5.90;99.90
7494;DHT22;3788;49.902;8.590;2024-01-06T00:59:31;5.90;99.90
7494;DHT22;3788;49.902;8.590;2024-01-06T01:01:57;6.00;99.90
7494;DHT22;3788;49.902;8.590;2024-01-06T01:04:24;6.00;99.90
7494;DHT22;3788;49.902;8.590;2024-01-06T01:06:52;6.10;99.90
7494;DHT22;3788;49.902;8.590;2024-01-06T01:09:19;6.10;99.90
7494;DHT22;3788;49.902;8.590;2024-01-06T01:11:46;6.10;99.90
7494;DHT22;3788;49.902;8.590;2024-01-06T01:14:12;6.20;99.90
7494;DHT22;3788;49.902;8.590;2024-01-06T01:16:39;6.20;99.90
7494;DHT22;3788;49.902;8.590;2024-01-06T01:19:05;6.20;99.90
7494;DHT22;3788;49.902;8.590;2024-01-06T01:21:32;6.30;99.90
7494;DHT22;3788;49.902;8.590;2024-01-06T01:24:00;6.30;99.90
7494;DHT22;3788;49.902;8.590;2024-01-06T01:26:28;6.20;99.90
7494;DHT22;3788;49.902;8.590;2024-01-06T01:28:54;6.30;99.90
7494;DHT22;3788;49.902;8.590;2024-01-06T01:31:21;6.30;99.90
7494;DHT22;3788;49.902;8.590;2024-01-06T01:33:48;6.30;99.90
7494;DHT22;3788;49.902;8.590;2024-01-06T01:36:14;6.30;99.90
7494;DHT22;3788;49.902;8.590;2024-01-06T01:38:41;6.20;99.90
7494;DHT22;3788;49.902;8.590;2024-01-06T01:41:09;6.20;99.90
7494;DHT22;3788;49.902;8.590;2024-01-06T01:43:35;6.20;99.90
7494;DHT22;3788;49.902;8.590;2024-01-06T01:46:03;6.20;99.90
7494;DHT22;3788;49.902;8.590;2024-01-06T01:48:30;6.20;99.90
7494;DHT22;3788;49.902;8.590;2024-01-06T01:50:59;6.20;99.90
7494;DHT22;3788;49.902;8.590;2024-01-06T01:53:24;6.20;99.90
7494;DHT22;3788;49.902;8.590;2024-01-06T01:55:52;6.30;99.90
7494;DHT22;3788;49.902;8.590;2024-01-06T01:58:20;6.30;99.90
7494;DHT22;3788;49.902;8.590;2024-01-06T02:00:47;6.30;99.90
7494;DHT22;3788;49.902;8.590;2024-01-06T02:03:14;6.30;99.90
7494;DHT22;3788;49.902;8.590;2024-01-06T02:05:41;6.30;99.90
7494;DHT22;3788;49.902;8.590;2024-01-06T02:08:08;6.30;99.90
7494;DHT22;3788;49.902;8.590;2024-01-06T02:10:35;6.20;99.90
7494;DHT22;3788;49.902;8.590;2024-01-06T02:13:08;6.20;99.90
7494;DHT22;3788;49.902;8.590;2024-01-06T02:15:36;6.30;99.90
7494;DHT22;3788;49.902;8.590;2024-01-06T02:18:04;6.30;99.90
7494;DHT22;3788;49.902;8.590;2024-01-06T02:20:31;6.30;99.90
7494;DHT22;3788;49.902;8.590;2024-01-06T02:22:59;6.30;99.90
7494;DHT22;3788;49.902;8.590;2024-01-06T02:25:26;6.30;99.90
7494;DHT22;3788;49.902;8.590;2024-01-06T02:27:52;6.30;99.90
7494;DHT22;3788;49.902;8.590;2024-01-06T02:30:19;6.30;99.90
7494;DHT22;3788;49.902;8.590;2024-01-06T02:32:46;6.40;99.90
7494;DHT22;3788;49.902;8.590;2024-01-06T02:35:13;6.40;99.90
7494;DHT22;3788;49.902;8.590;2024-01-06T02:37:39;6.40;99.90
7494;DHT22;3788;49.902;8.590;2024-01-06T02:40:09;6.40;99.90
7494;DHT22;3788;49.902;8.590;2024-01-06T02:42:35;6.40;99.90
7494;DHT22;3788;49.902;8.590;2024-01-06T02:45:03;6.40;99.90
7494;DHT22;3788;49.902;8.590;2024-01-06T02:47:29;6.40;99.90
7494;DHT22;3788;49.902;8.590;2024-01-06T02:49:56;6.40;99.90
7494;DHT22;3788;49.902;8.590;2024-01-06T02:52:23;6.40;99.90
7494;DHT22;3788;49.902;8.590;2024-01-06T02:54:49;6.40;99.90
7494;DHT22;3788;49.902;8.590;2024-01-06T02:57:18;6.40;99.90
7494;DHT22;3788;49.902;8.590;2024-01-06T02:59:45;6.40;99.90
7494;DHT22;3788;49.902;8.590;2024-01-06T03:02:11;6.40;99.90
7494;DHT22;3788;49.902;8.590;2024-01-06T03:04:38;6.40;99.90
7494;DHT22;3788;49.902;8.590;2024-01-06T03:07:05;6.40;99.90
7494;DHT22;3788;49.902;8.590;2024-01-06T03:09:31;6.30;99.90
7494;DHT22;3788;49.902;8.590;2024-01-06T03:11:58;6.30;99.90
7494;DHT22;3788;49.902;8.590;2024-01-06T03:14:26;6.30;99.90
7494;DHT22;3788;49.902;8.590;2024-01-06T03:16:53;6.30;99.90
7494;DHT22;3788;49.902;8.590;2024-01-06T03:19:19;6.30;99.90
7494;DHT22;3788;49.902;8.590;2024-01-06T03:21:46;6.30;99.90
7494;DHT22;3788;49.902;8.590;2024-01-06T03:24:13;6.30;99.90
7494;DHT22;3788;49.902;8.590;2024-01-06T03:26:39;6.30;99.90
7494;DHT22;3788;49.902;8.590;2024-01-06T03:29:06;6.30;99.90
7494;DHT22;3788;49.902;8.590;2024-01-06T03:31:34;6.30;99.90
7494;DHT22;3788;49.902;8.590;2024-01-06T03:34:01;6.30;99.90
7494;DHT22;3788;49.902;8.590;2024-01-06T03:36:27;6.30;99.90
7494;DHT22;3788;49.902;8.590;2024-01-06T03:38:54;6.30;99.90
7494;DHT22;3788;49.902;8.590;2024-01-06T03:41:21;6.30;99.90
7494;DHT22;3788;49.902;8.590;2024-01-06T03:43:48;6.30;99.90
7494;DHT22;3788;49.902;8.590;2024-01-06T03:46:14;6.30;99.90
7494;DHT22;3788;49.902;8.590;2024-01-06T03:48:42;6.30;99.90
7494;DHT22;3788;49.902;8.590;2024-01-06T03:51:10;6.30;99.90
7494;DHT22;3788;49.902;8.590;2024-01-06T03:53:37;6.30;99.90
7494;DHT22;3788;49.902;8.590;2024-01-06T03:56:04;6.30;99.90
7494;DHT22;3788;49.902;8.590;2024-01-06T03:58:31;6.30;99.90
7494;DHT22;3788;49.902;8.590;2024-01-06T04:00:58;6.20;99.90
7494;DHT22;3788;49.902;8.590;2024-01-06T04:03:24;6.20;99.90
7494;DHT22;3788;49.902;8.590;2024-01-06T04:05:52;6.20;99.90
7494;DHT22;3788;49.902;8.590;2024-01-06T04:08:19;6.20;99.90
7494;DHT22;3788;49.902;8.590;2024-01-06T04:10:46;6.20;99.90
7494;DHT22;3788;49.902;8.590;2024-01-06T04:13:12;6.20;99.90
7494;DHT22;3788;49.902;8.590;2024-01-06T04:15:39;6.20;99.90
7494;DHT22;3788;49.902;8.590;2024-01-06T04:18:06;6.20;99.90
7494;DHT22;3788;49.902;8.590;2024-01-06T04:20:34;6.20;99.90
7494;DHT22;3788;49.902;8.590;2024-01-06T04:23:03;6.20;99.90
7494;DHT22;3788;49.902;8.590;2024-01-06T04:25:30;6.10;99.90
7494;DHT22;3788;49.902;8.590;2024-01-06T04:27:57;6.10;99.90
7494;DHT22;3788;49.902;8.590;2024-01-06T04:30:23;6.10;99.90
7494;DHT22;3788;49.902;8.590;2024-01-06T04:32:51;6.10;99.90
7494;DHT22;3788;49.902;8.590;2024-01-06T04:35:19;6.10;99.90
7494;DHT22;3788;49.902;8.590;2024-01-06T04:37:46;6.10;99.90
7494;DHT22;3788;49.902;8.590;2024-01-06T04:40:15;6.10;99.90
7494;DHT22;3788;49.902;8.590;2024-01-06T04:42:41;6.10;99.90
7494;DHT22;3788;49.902;8.590;2024-01-06T04:45:09;6.20;99.90
7494;DHT22;3788;49.902;8.590;2024-01-06T04:47:35;6.20;99.90
7494;DHT22;3788;49.902;8.590;2024-01-06T04:50:02;6.20;99.90
7494;DHT22;3788;49.902;8.590;2024-01-06T04:52:29;6.20;99.90
7494;DHT22;3788;49.902;8.590;2024-01-06T04:54:56;6.20;99.90
7494;DHT22;3788;49.902;8.590;2024-01-06T04:57:24;6.30;99.90
7494;DHT22;3788;49.902;8.590;2024-01-06T04:59:50;6.30;99.90
7494;DHT22;3788;49.902;8.590;2024-01-06T05:02:17;6.30;99.90
7494;DHT22;3788;49.902;8.590;2024-01-06T05:04:44;6.30;99.90
7494;DHT22;3788;49.902;8.590;2024-01-06T05:07:11;6.30;99.90
7494;DHT22;3788;49.902;8.590;2024-01-06T05:09:37;6.30;99.90
7494;DHT22;3788;49.902;8.590;2024-01-06T05:12:04;6.30;99.90
7494;DHT22;3788;49.902;8.590;2024-01-06T05:14:32;6.30;99.90
7494;DHT22;3788;49.902;8.590;2024-01-06T05:16:59;6.30;99.90
7494;DHT22;3788;49.902;8.590;2024-01-06T05:19:26;6.30;99.90
7494;DHT22;3788;49.902;8.590;2024-01-06T05:21:52;6.30;99.90
7494;DHT22;3788;49.902;8.590;2024-01-06T05:24:20;6.30;99.90
7494;DHT22;3788;49.902;8.590;2024-01-06T05:26:46;6.30;99.90
7494;DHT22;3788;49.902;8.590;2024-01-06T05:29:13;6.30;99.90
7494;DHT22;3788;49.902;8.590;2024-01-06T05:31:41;6.30;99.90
7494;DHT22;3788;49.902;8.590;2024-01-06T05:34:08;6.20;99.90
7494;DHT22;3788;49.902;8.590;2024-01-06T05:36:34;6.20;99.90
7494;DHT22;3788;49.902;8.590;2024-01-06T05:39:01;6.20;99.90
7494;DHT22;3788;49.902;8.590;2024-01-06T05:41:28;6.20;99.90
7494;DHT22;3788;49.902;8.590;2024-01-06T05:43:54;6.20;99.90
7494;DHT22;3788;49.902;8.590;2024-01-06T05:46:22;6.20;99.90
7494;DHT22;3788;49.902;8.590;2024-01-06T05:48:50;6.20;99.90
7494;DHT22;3788;49.902;8.590;2024-01-06T05:51:17;6.20;99.90
7494;DHT22;3788;49.902;8.590;2024-01-06T05:53:43;6.20;99.90
7494;DHT22;3788;49.902;8.590;2024-01-06T05:56:10;6.20;99.90
7494;DHT22;3788;49.902;8.590;2024-01-06T05:58:37;6.20;99.90
7494;DHT22;3788;49.902;8.590;2024-01-06T06:01:03;6.20;99.90
7494;DHT22;3788;49.902;8.590;2024-01-06T06:03:30;6.20;99.90
7494;DHT22;3788;49.902;8.590;2024-01-06T06:05:58;6.20;99.90
7494;DHT22;3788;49.902;8.590;2024-01-06T06:08:25;6.20;99.90
7494;DHT22;3788;49.902;8.590;2024-01-06T06:10:52;6.20;99.90
7494;DHT22;3788;49.902;8.590;2024-01-06T06:13:27;6.20;99.90
7494;DHT22;3788;49.902;8.590;2024-01-06T06:15:54;6.20;99.90
7494;DHT22;3788;49.902;8.590;2024-01-06T06:18:21;6.20;99.90
7494;DHT22;3788;49.902;8.590;2024-01-06T06:20:47;6.20;99.90
7494;DHT22;3788;49.902;8.590;2024-01-06T06:23:15;6.20;99.90
7494;DHT22;3788;49.902;8.590;2024-01-06T06:25:42;6.20;99.90
7494;DHT22;3788;49.902;8.590;2024-01-06T06:28:09;6.20;99.90
7494;DHT22;3788;49.902;8.590;2024-01-06T06:30:35;6.20;99.90
7494;DHT22;3788;49.902;8.590;2024-01-06T06:33:02;6.20;99.90
7494;DHT22;3788;49.902;8.590;2024-01-06T06:35:29;6.20;99.90
7494;DHT22;3788;49.902;8.590;2024-01-06T06:37:56;6.20;99.90
7494;DHT22;3788;49.902;8.590;2024-01-06T06:40:24;6.20;99.90
7494;DHT22;3788;49.902;8.590;2024-01-06T06:42:50;6.20;99.90
7494;DHT22;3788;49.902;8.590;2024-01-06T06:45:17;6.20;99.90
7494;DHT22;3788;49.902;8.590;2024-01-06T06:47:47;6.20;99.90
7494;DHT22;3788;49.902;8.590;2024-01-06T06:50:14;6.20;99.90
7494;DHT22;3788;49.902;8.590;2024-01-06T06:52:41;6.20;99.90
7494;DHT22;3788;49.902;8.590;2024-01-06T06:55:08;6.20;99.90
7494;DHT22;3788;49.902;8.590;2024-01-06T06:57:36;6.20;99.90
7494;DHT22;3788;49.902;8.590;2024-01-06T07:00:04;6.20;99.90
7494;DHT22;3788;49.902;8.590;2024-01-06T07:02:32;6.20;99.90
7494;DHT22;3788;49.902;8.590;2024-01-06T07:04:59;6.20;99.90
7494;DHT22;3788;49.902;8.590;2024-01-06T07:07:26;6.20;99.90
7494;DHT22;3788;49.902;8.590;2024-01-06T07:09:52;6.20;99.90
7494;DHT22;3788;49.902;8.590;2024-01-06T07:12:19;6.20;99.90
7494;DHT22;3788;49.902;8.590;2024-01-06T07:14:47;6.20;99.90
7494;DHT22;3788;49.902;8.590;2024-01-06T07:17:14;6.20;99.90
7494;DHT22;3788;49.902;8.590;2024-01-06T07:19:40;6.20;99.90
7494;DHT22;3788;49.902;8.590;2024-01-06T07:22:07;6.20;99.90
7494;DHT22;3788;49.902;8.590;2024-01-06T07:24:34;6.20;99.90
7494;DHT22;3788;49.902;8.590;2024-01-06T07:27:01;6.20;99.90
7494;DHT22;3788;49.902;8.590;2024-01-06T07:29:29;6.30;99.90
7494;DHT22;3788;49.902;8.590;2024-01-06T07:31:57;6.30;99.90
7494;DHT22;3788;49.902;8.590;2024-01-06T07:34:24;6.30;99.90
7494;DHT22;3788;49.902;8.590;2024-01-06T07:36:51;6.30;99.90
7494;DHT22;3788;49.902;8.590;2024-01-06T07:39:18;6.30;99.90
7494;DHT22;3788;49.902;8.590;2024-01-06T07:41:44;6.30;99.90
7494;DHT22;3788;49.902;8.590;2024-01-06T07:44:11;6.30;99.90
7494;DHT22;3788;49.902;8.590;2024-01-06T07:46:38;6.30;99.90
7494;DHT22;3788;49.902;8.590;2024-01-06T07:49:07;6.30;99.90
7494;DHT22;3788;49.902;8.590;2024-01-06T07:51:33;6.30;99.90
7494;DHT22;3788;49.902;8.590;2024-01-06T07:54:00;6.30;99.90
7494;DHT22;3788;49.902;8.590;2024-01-06T07:56:27;6.30;99.90
7494;DHT22;3788;49.902;8.590;2024-01-06T07:58:54;6.30;99.90
7494;DHT22;3788;49.902;8.590;2024-01-06T08:01:21;6.30;99.90
7494;DHT22;3788;49.902;8.590;2024-01-06T08:03:47;6.30;99.90
7494;DHT22;3788;49.902;8.590;2024-01-06T08:06:15;6.30;99.90
7494;DHT22;3788;49.902;8.590;2024-01-06T08:08:42;6.30;99.90
7494;DHT22;3788;49.902;8.590;2024-01-06T08:11:08;6.30;99.90
7494;DHT22;3788;49.902;8.590;2024-01-06T08:13:36;6.30;99.90
7494;DHT22;3788;49.902;8.590;2024-01-06T08:16:03;6.30;99.90
7494;DHT22;3788;49.902;8.590;2024-01-06T08:18:29;6.30;99.90
7494;DHT22;3788;49.902;8.590;2024-01-06T08:20:56;6.30;99.90
7494;DHT22;3788;49.902;8.590;2024-01-06T08:23:25;6.30;99.90
7494;DHT22;3788;49.902;8.590;2024-01-06T08:25:52;6.40;99.90
7494;DHT22;3788;49.902;8.590;2024-01-06T08:28:19;6.40;99.90
7494;DHT22;3788;49.902;8.590;2024-01-06T08:30:48;6.40;99.90
7494;DHT22;3788;49.902;8.590;2024-01-06T08:33:15;6.40;99.90
7494;DHT22;3788;49.902;8.590;2024-01-06T08:35:43;6.40;99.90
7494;DHT22;3788;49.902;8.590;2024-01-06T08:38:09;6.40;99.90
7494;DHT22;3788;49.902;8.590;2024-01-06T08:40:37;6.40;99.90
7494;DHT22;3788;49.902;8.590;2024-01-06T08:43:04;6.40;99.90
7494;DHT22;3788;49.902;8.590;2024-01-06T08:45:31;6.40;99.90
7494;DHT22;3788;49.902;8.590;2024-01-06T08:47:58;6.40;99.90
7494;DHT22;3788;49.902;8.590;2024-01-06T08:50:24;6.40;99.90
7494;DHT22;3788;49.902;8.590;2024-01-06T08:52:52;6.50;99.90
7494;DHT22;3788;49.902;8.590;2024-01-06T08:55:18;6.50;99.90
7494;DHT22;3788;49.902;8.590;2024-01-06T08:57:46;6.50;99.90
7494;DHT22;3788;49.902;8.590;2024-01-06T09:00:14;6.60;99.90
7494;DHT22;3788;49.902;8.590;2024-01-06T09:02:41;6.60;99.90
7494;DHT22;3788;49.902;8.590;2024-01-06T09:05:08;6.60;99.90
7494;DHT22;3788;49.902;8.590;2024-01-06T09:07:34;6.60;99.90
7494;DHT22;3788;49.902;8.590;2024-01-06T09:10:01;6.70;99.90
7494;DHT22;3788;49.902;8.590;2024-01-06T09:12:28;6.70;99.90
7494;DHT22;3788;49.902;8.590;2024-01-06T09:14:56;6.70;99.90
7494;DHT22;3788;49.902;8.590;2024-01-06T09:17:23;6.70;99.90
7494;DHT22;3788;49.902;8.590;2024-01-06T09:19:50;6.70;99.90
7494;DHT22;3788;49.902;8.590;2024-01-06T09:22:19;6.70;99.90
7494;DHT22;3788;49.902;8.590;2024-01-06T09:24:45;6.70;99.90
7494;DHT22;3788;49.902;8.590;2024-01-06T09:27:12;6.70;99.90
7494;DHT22;3788;49.902;8.590;2024-01-06T09:29:40;6.70;99.90
7494;DHT22;3788;49.902;8.590;2024-01-06T09:32:08;6.70;99.90
7494;DHT22;3788;49.902;8.590;2024-01-06T09:34:35;6.70;99.90
7494;DHT22;3788;49.902;8.590;2024-01-06T09:37:01;6.70;99.90
7494;DHT22;3788;49.902;8.590;2024-01-06T09:39:28;6.80;99.90
7494;DHT22;3788;49.902;8.590;2024-01-06T09:41:56;6.80;99.90
7494;DHT22;3788;49.902;8.590;2024-01-06T09:44:23;6.90;99.90
7494;DHT22;3788;49.902;8.590;2024-01-06T09:46:50;6.90;99.90
7494;DHT22;3788;49.902;8.590;2024-01-06T09:49:23;7.00;99.90
7494;DHT22;3788;49.902;8.590;2024-01-06T09:51:50;7.00;99.90
7494;DHT22;3788;49.902;8.590;2024-01-06T09:54:22;7.00;99.90
7494;DHT22;3788;49.902;8.590;2024-01-06T09:56:49;7.00;99.90
7494;DHT22;3788;49.902;8.590;2024-01-06T09:59:18;7.10;99.90
7494;DHT22;3788;49.902;8.590;2024-01-06T10:01:45;7.10;99.90
7494;DHT22;3788;49.902;8.590;2024-01-06T10:04:12;7.10;99.90
7494;DHT22;3788;49.902;8.590;2024-01-06T10:06:41;7.10;99.90
7494;DHT22;3788;49.902;8.590;2024-01-06T10:09:08;7.00;99.90
7494;DHT22;3788;49.902;8.590;2024-01-06T10:11:36;7.10;99.90
7494;DHT22;3788;49.902;8.590;2024-01-06T10:14:06;7.10;99.90
7494;DHT22;3788;49.902;8.590;2024-01-06T10:16:34;7.10;99.90
7494;DHT22;3788;49.902;8.590;2024-01-06T10:19:01;7.10;99.90
7494;DHT22;3788;49.902;8.590;2024-01-06T10:21:28;7.10;99.90
7494;DHT22;3788;49.902;8.590;2024-01-06T10:23:56;7.10;99.90
7494;DHT22;3788;49.902;8.590;2024-01-06T10:26:22;7.10;99.90
7494;DHT22;3788;49.902;8.590;2024-01-06T10:28:49;7.10;99.90
7494;DHT22;3788;49.902;8.590;2024-01-06T10:31:16;7.10;99.90
7494;DHT22;3788;49.902;8.590;2024-01-06T10:33:44;7.10;99.90
7494;DHT22;3788;49.902;8.590;2024-01-06T10:36:11;7.10;99.90
7494;DHT22;3788;49.902;8.590;2024-01-06T10:38:40;7.10;99.90
7494;DHT22;3788;49.902;8.590;2024-01-06T10:41:09;7.10;99.90
7494;DHT22;3788;49.902;8.590;2024-01-06T10:43:38;7.10;99.90
7494;DHT22;3788;49.902;8.590;2024-01-06T10:46:07;7.20;99.90
7494;DHT22;3788;49.902;8.590;2024-01-06T10:48:36;7.20;99.90
7494;DHT22;3788;49.902;8.590;2024-01-06T10:51:04;7.20;99.90
7494;DHT22;3788;49.902;8.590;2024-01-06T10:53:33;7.30;99.90
7494;DHT22;3788;49.902;8.590;2024-01-06T10:56:01;7.30;99.90
7494;DHT22;3788;49.902;8.590;2024-01-06T10:58:30;7.30;99.90
7494;DHT22;3788;49.902;8.590;2024-01-06T11:00:58;7.40;99.90
7494;DHT22;3788;49.902;8.590;2024-01-06T11:03:27;7.50;99.90
7494;DHT22;3788;49.902;8.590;2024-01-06T11:05:55;7.50;99.90
7494;DHT22;3788;49.902;8.590;2024-01-06T11:08:23;7.60;99.90
7494;DHT22;3788;49.902;8.590;2024-01-06T11:10:51;7.70;99.90
7494;DHT22;3788;49.902;8.590;2024-01-06T11:13:22;7.80;99.90
7494;DHT22;3788;49.902;8.590;2024-01-06T11:15:51;7.80;99.90
7494;DHT22;3788;49.902;8.590;2024-01-06T11:18:35;7.90;99.90
7494;DHT22;3788;49.902;8.590;2024-01-06T11:21:15;7.90;99.90
7494;DHT22;3788;49.902;8.590;2024-01-06T11:23:43;7.90;99.90
7494;DHT22;3788;49.902;8.590;2024-01-06T11:26:11;7.90;99.90
7494;DHT22;3788;49.902;8.590;2024-01-06T11:28:44;7.90;99.90
7494;DHT22;3788;49.902;8.590;2024-01-06T11:31:12;7.90;99.90
7494;DHT22;3788;49.902;8.590;2024-01-06T11:33:42;7.90;99.90
7494;DHT22;3788;49.902;8.590;2024-01-06T11:36:09;7.90;99.90
7494;DHT22;3788;49.902;8.590;2024-01-06T11:38:38;7.90;99.90
7494;DHT22;3788;49.902;8.590;2024-01-06T11:41:06;8.00;99.90
7494;DHT22;3788;49.902;8.590;2024-01-06T11:43:34;8.00;99.90
7494;DHT22;3788;49.902;8.590;2024-01-06T11:46:02;8.10;99.90
7494;DHT22;3788;49.902;8.590;2024-01-06T11:48:34;8.10;99.90
7494;DHT22;3788;49.902;8.590;2024-01-06T11:51:03;8.20;99.90
7494;DHT22;3788;49.902;8.590;2024-01-06T11:53:30;8.20;99.90
7494;DHT22;3788;49.902;8.590;2024-01-06T11:55:59;8.30;99.90
7494;DHT22;3788;49.902;8.590;2024-01-06T11:58:27;8.30;99.90
7494;DHT22;3788;49.902;8.590;2024-01-06T12:00:55;8.30;99.90
7494;DHT22;3788;49.902;8.590;2024-01-06T12:03:22;8.30;99.90
7494;DHT22;3788;49.902;8.590;2024-01-06T12:06:00;8.40;99.90
7494;DHT22;3788;49.902;8.590;2024-01-06T12:08:28;8.40;99.90
7494;DHT22;3788;49.902;8.590;2024-01-06T12:11:02;8.40;99.90
7494;DHT22;3788;49.902;8.590;2024-01-06T12:13:29;8.40;99.90
7494;DHT22;3788;49.902;8.590;2024-01-06T12:15:55;8.40;99.90
7494;DHT22;3788;49.902;8.590;2024-01-06T12:18:23;8.30;99.90
7494;DHT22;3788;49.902;8.590;2024-01-06T12:20:50;8.30;99.90
7494;DHT22;3788;49.902;8.590;2024-01-06T12:23:25;8.40;99.90
7494;DHT22;3788;49.902;8.590;2024-01-06T12:25:53;8.40;99.90
7494;DHT22;3788;49.902;8.590;2024-01-06T12:28:20;8.40;99.90
7494;DHT22;3788;49.902;8.590;2024-01-06T12:30:46;8.40;99.90
7494;DHT22;3788;49.902;8.590;2024-01-06T12:33:13;8.50;99.90
7494;DHT22;3788;49.902;8.590;2024-01-06T12:35:40;8.40;99.90
7494;DHT22;3788;49.902;8.590;2024-01-06T12:38:08;8.40;99.90
7494;DHT22;3788;49.902;8.590;2024-01-06T12:40:37;8.40;99.90
7494;DHT22;3788;49.902;8.590;2024-01-06T12:43:04;8.40;99.90
7494;DHT22;3788;49.902;8.590;2024-01-06T12:45:31;8.40;99.90
7494;DHT22;3788;49.902;8.590;2024-01-06T12:47:58;8.40;99.90
7494;DHT22;3788;49.902;8.590;2024-01-06T12:50:24;8.40;99.90
7494;DHT22;3788;49.902;8.590;2024-01-06T12:52:51;8.40;99.90
7494;DHT22;3788;49.902;8.590;2024-01-06T12:55:17;8.40;99.90
7494;DHT22;3788;49.902;8.590;2024-01-06T12:57:44;8.40;99.90
7494;DHT22;3788;49.902;8.590;2024-01-06T13:00:12;8.40;99.90
7494;DHT22;3788;49.902;8.590;2024-01-06T13:02:39;8.50;99.90
7494;DHT22;3788;49.902;8.590;2024-01-06T13:05:06;8.40;99.90
7494;DHT22;3788;49.902;8.590;2024-01-06T13:07:35;8.50;99.90
7494;DHT22;3788;49.902;8.590;2024-01-06T13:10:02;8.50;99.90
7494;DHT22;3788;49.902;8.590;2024-01-06T13:12:29;8.50;99.90
7494;DHT22;3788;49.902;8.590;2024-01-06T13:14:57;8.50;99.90
7494;DHT22;3788;49.902;8.590;2024-01-06T13:17:24;8.50;99.90
7494;DHT22;3788;49.902;8.590;2024-01-06T13:19:51;8.50;99.90
7494;DHT22;3788;49.902;8.590;2024-01-06T13:22:17;8.50;99.90
7494;DHT22;3788;49.902;8.590;2024-01-06T13:24:47;8.50;99.90
7494;DHT22;3788;49.902;8.590;2024-01-06T13:27:13;8.50;99.90
7494;DHT22;3788;49.902;8.590;2024-01-06T13:29:40;8.50;99.90
7494;DHT22;3788;49.902;8.590;2024-01-06T13:32:08;8.50;99.90
7494;DHT22;3788;49.902;8.590;2024-01-06T13:34:36;8.60;99.90
7494;DHT22;3788;49.902;8.590;2024-01-06T13:37:03;8.60;99.90
7494;DHT22;3788;49.902;8.590;2024-01-06T13:39:31;8.60;99.90
7494;DHT22;3788;49.902;8.590;2024-01-06T13:41:57;8.60;99.90
7494;DHT22;3788;49.902;8.590;2024-01-06T13:44:24;8.50;99.90
7494;DHT22;3788;49.902;8.590;2024-01-06T13:46:51;8.50;99.90
7494;DHT22;3788;49.902;8.590;2024-01-06T13:49:21;8.50;99.90
7494;DHT22;3788;49.902;8.590;2024-01-06T13:51:49;8.50;99.90
7494;DHT22;3788;49.902;8.590;2024-01-06T13:54:16;8.40;99.90
7494;DHT22;3788;49.902;8.590;2024-01-06T13:56:42;8.40;99.90
7494;DHT22;3788;49.902;8.590;2024-01-06T13:59:09;8.40;99.90
7494;DHT22;3788;49.902;8.590;2024-01-06T14:01:36;8.40;99.90
7494;DHT22;3788;49.902;8.590;2024-01-06T14:04:03;8.40;99.90
7494;DHT22;3788;49.902;8.590;2024-01-06T14:06:32;8.40;99.90
7494;DHT22;3788;49.902;8.590;2024-01-06T14:08:59;8.40;99.90
7494;DHT22;3788;49.902;8.590;2024-01-06T14:11:26;8.40;99.90
7494;DHT22;3788;49.902;8.590;2024-01-06T14:13:57;8.40;99.90
7494;DHT22;3788;49.902;8.590;2024-01-06T14:16:24;8.50;99.90
7494;DHT22;3788;49.902;8.590;2024-01-06T14:18:51;8.40;99.90
7494;DHT22;3788;49.902;8.590;2024-01-06T14:21:18;8.40;99.90
7494;DHT22;3788;49.902;8.590;2024-01-06T14:23:46;8.30;99.90
7494;DHT22;3788;49.902;8.590;2024-01-06T14:26:13;8.30;99.90
7494;DHT22;3788;49.902;8.590;2024-01-06T14:28:40;8.30;99.90
7494;DHT22;3788;49.902;8.590;2024-01-06T14:31:06;8.30;99.90
7494;DHT22;3788;49.902;8.590;2024-01-06T14:33:35;8.30;99.90
7494;DHT22;3788;49.902;8.590;2024-01-06T14:36:02;8.30;99.90
7494;DHT22;3788;49.902;8.590;2024-01-06T14:38:30;8.30;99.90
7494;DHT22;3788;49.902;8.590;2024-01-06T14:40:58;8.30;99.90
7494;DHT22;3788;49.902;8.590;2024-01-06T14:43:24;8.30;99.90
7494;DHT22;3788;49.902;8.590;2024-01-06T14:45:51;8.30;99.90
7494;DHT22;3788;49.902;8.590;2024-01-06T14:48:18;8.30;99.90
7494;DHT22;3788;49.902;8.590;2024-01-06T14:50:45;8.40;99.90
7494;DHT22;3788;49.902;8.590;2024-01-06T14:53:11;8.30;99.90
7494;DHT22;3788;49.902;8.590;2024-01-06T14:55:38;8.30;99.90
7494;DHT22;3788;49.902;8.590;2024-01-06T14:58:06;8.30;99.90
7494;DHT22;3788;49.902;8.590;2024-01-06T15:00:34;8.30;99.90
7494;DHT22;3788;49.902;8.590;2024-01-06T15:03:01;8.30;99.90
7494;DHT22;3788;49.902;8.590;2024-01-06T15:05:28;8.30;99.90
7494;DHT22;3788;49.902;8.590;2024-01-06T15:07:56;8.30;99.90
7494;DHT22;3788;49.902;8.590;2024-01-06T15:10:27;8.20;99.90
7494;DHT22;3788;49.902;8.590;2024-01-06T15:13:17;8.20;99.90
7494;DHT22;3788;49.902;8.590;2024-01-06T15:15:43;8.20;99.90
7494;DHT22;3788;49.902;8.590;2024-01-06T15:18:10;8.20;99.90
7494;DHT22;3788;49.902;8.590;2024-01-06T15:20:37;8.20;99.90
7494;DHT22;3788;49.902;8.590;2024-01-06T15:23:05;8.10;99.90
7494;DHT22;3788;49.902;8.590;2024-01-06T15:25:31;8.10;99.90
7494;DHT22;3788;49.902;8.590;2024-01-06T15:27:58;8.10;99.90
7494;DHT22;3788;49.902;8.590;2024-01-06T15:30:46;8.00;99.90
7494;DHT22;3788;49.902;8.590;2024-01-06T15:33:13;8.00;99.90
7494;DHT22;3788;49.902;8.590;2024-01-06T15:35:40;7.90;99.90
7494;DHT22;3788;49.902;8.590;2024-01-06T15:38:07;7.90;99.90
7494;DHT22;3788;49.902;8.590;2024-01-06T15:40:34;7.90;99.90
7494;DHT22;3788;49.902;8.590;2024-01-06T15:43:01;7.90;99.90
7494;DHT22;3788;49.902;8.590;2024-01-06T15:45:27;7.80;99.90
7494;DHT22;3788;49.902;8.590;2024-01-06T15:47:55;7.80;99.90
7494;DHT22;3788;49.902;8.590;2024-01-06T15:50:22;7.80;99.90
7494;DHT22;3788;49.902;8.590;2024-01-06T15:52:49;7.80;99.90
7494;DHT22;3788;49.902;8.590;2024-01-06T15:55:15;7.80;99.90
7494;DHT22;3788;49.902;8.590;2024-01-06T15:57:42;7.80;99.90
7494;DHT22;3788;49.902;8.590;2024-01-06T16:00:10;7.80;99.90
7494;DHT22;3788;49.902;8.590;2024-01-06T16:02:37;7.80;99.90
7494;DHT22;3788;49.902;8.590;2024-01-06T16:05:15;7.90;99.90
7494;DHT22;3788;49.902;8.590;2024-01-06T16:07:41;7.80;99.90
7494;DHT22;3788;49.902;8.590;2024-01-06T16:10:08;7.80;99.90
7494;DHT22;3788;49.902;8.590;2024-01-06T16:12:39;7.80;99.90
7494;DHT22;3788;49.902;8.590;2024-01-06T16:15:12;7.80;99.90
7494;DHT22;3788;49.902;8.590;2024-01-06T16:17:38;7.80;99.90